sensor_id;sensor_type;location;lat;lon;timestamp;P1;durP1;ratioP1;P2;durP2;ratioP2
28613;SDS011;15806;53.548;9.964;2023-05-10T00:01:27;2.80;;;1.87;;
28613;SDS011;15806;53.548;9.964;2023-05-10T00:03:08;9.27;;;2.50;;
28613;SDS011;15806;53.548;9.964;2023-05-10T00:04:48;5.13;;;2.37;;
28613;SDS011;15806;53.548;9.964;2023-05-10T00:06:29;3.90;;;1.90;;
28613;SDS011;15806;53.548;9.964;2023-05-10T00:08:13;3.88;;;2.78;;
28613;SDS011;15806;53.548;9.964;2023-05-10T00:09:53;5.10;;;2.03;;
28613;SDS011;15806;53.548;9.964;2023-05-10T00:11:37;3.43;;;2.10;;
28613;SDS011;15806;53.548;9.964;2023-05-10T00:13:24;5.32;;;2.60;;
28613;SDS011;15806;53.548;9.964;2023-05-10T00:15:04;4.00;;;2.40;;
28613;SDS011;15806;53.548;9.964;2023-05-10T00:16:45;9.52;;;2.67;;
28613;SDS011;15806;53.548;9.964;2023-05-10T00:18:26;4.27;;;1.97;;
28613;SDS011;15806;53.548;9.964;2023-05-10T00:20:07;6.43;;;2.27;;
28613;SDS011;15806;53.548;9.964;2023-05-10T00:21:47;8.02;;;2.05;;
28613;SDS011;15806;53.548;9.964;2023-05-10T00:23:28;5.13;;;2.47;;
28613;SDS011;15806;53.548;9.964;2023-05-10T00:25:09;6.17;;;2.40;;
28613;SDS011;15806;53.548;9.964;2023-05-10T00:26:49;6.47;;;2.50;;
28613;SDS011;15806;53.548;9.964;2023-05-10T00:28:30;5.07;;;2.40;;
28613;SDS011;15806;53.548;9.964;2023-05-10T00:30:10;4.83;;;2.00;;
28613;SDS011;15806;53.548;9.964;2023-05-10T00:31:51;5.57;;;2.40;;
28613;SDS011;15806;53.548;9.964;2023-05-10T00:33:31;8.17;;;2.57;;
28613;SDS011;15806;53.548;9.964;2023-05-10T00:35:12;6.50;;;1.77;;
28613;SDS011;15806;53.548;9.964;2023-05-10T00:36:52;5.03;;;2.60;;
28613;SDS011;15806;53.548;9.964;2023-05-10T00:38:33;5.87;;;2.30;;
28613;SDS011;15806;53.548;9.964;2023-05-10T00:40:13;4.77;;;2.30;;
28613;SDS011;15806;53.548;9.964;2023-05-10T00:41:54;4.20;;;1.90;;
28613;SDS011;15806;53.548;9.964;2023-05-10T00:43:34;5.83;;;2.37;;
28613;SDS011;15806;53.548;9.964;2023-05-10T00:45:15;4.77;;;1.93;;
28613;SDS011;15806;53.548;9.964;2023-05-10T00:46:55;6.93;;;2.50;;
28613;SDS011;15806;53.548;9.964;2023-05-10T00:48:36;7.25;;;2.40;;
28613;SDS011;15806;53.548;9.964;2023-05-10T00:50:17;4.97;;;2.57;;
28613;SDS011;15806;53.548;9.964;2023-05-10T00:51:58;7.32;;;2.08;;
28613;SDS011;15806;53.548;9.964;2023-05-10T00:53:39;5.30;;;2.80;;
28613;SDS011;15806;53.548;9.964;2023-05-10T00:55:20;6.38;;;2.83;;
28613;SDS011;15806;53.548;9.964;2023-05-10T00:57:01;6.50;;;2.97;;
28613;SDS011;15806;53.548;9.964;2023-05-10T00:58:42;2.72;;;1.90;;
28613;SDS011;15806;53.548;9.964;2023-05-10T01:00:23;3.00;;;2.30;;
28613;SDS011;15806;53.548;9.964;2023-05-10T01:02:03;4.50;;;2.70;;
28613;SDS011;15806;53.548;9.964;2023-05-10T01:03:44;7.63;;;2.43;;
28613;SDS011;15806;53.548;9.964;2023-05-10T01:05:25;3.90;;;2.50;;
28613;SDS011;15806;53.548;9.964;2023-05-10T01:07:05;5.07;;;2.13;;
28613;SDS011;15806;53.548;9.964;2023-05-10T01:08:46;7.40;;;2.47;;
28613;SDS011;15806;53.548;9.964;2023-05-10T01:10:27;7.40;;;2.27;;
28613;SDS011;15806;53.548;9.964;2023-05-10T01:12:07;7.53;;;2.50;;
28613;SDS011;15806;53.548;9.964;2023-05-10T01:13:50;4.33;;;2.37;;
28613;SDS011;15806;53.548;9.964;2023-05-10T01:15:36;7.82;;;2.72;;
28613;SDS011;15806;53.548;9.964;2023-05-10T01:17:17;6.72;;;3.88;;
28613;SDS011;15806;53.548;9.964;2023-05-10T01:18:58;5.30;;;2.78;;
28613;SDS011;15806;53.548;9.964;2023-05-10T01:20:40;7.73;;;3.43;;
28613;SDS011;15806;53.548;9.964;2023-05-10T01:22:33;9.90;;;2.30;;
28613;SDS011;15806;53.548;9.964;2023-05-10T01:35:38;6.30;;;2.67;;
28613;SDS011;15806;53.548;9.964;2023-05-10T01:37:21;7.65;;;2.17;;
28613;SDS011;15806;53.548;9.964;2023-05-10T01:39:25;3.80;;;2.40;;
28613;SDS011;15806;53.548;9.964;2023-05-10T01:41:36;4.32;;;2.20;;
28613;SDS011;15806;53.548;9.964;2023-05-10T01:43:42;9.95;;;2.58;;
28613;SDS011;15806;53.548;9.964;2023-05-10T01:45:36;3.30;;;2.58;;
28613;SDS011;15806;53.548;9.964;2023-05-10T01:47:35;4.03;;;2.45;;
28613;SDS011;15806;53.548;9.964;2023-05-10T01:49:23;6.20;;;2.67;;
28613;SDS011;15806;53.548;9.964;2023-05-10T01:51:06;3.40;;;2.30;;
28613;SDS011;15806;53.548;9.964;2023-05-10T01:52:51;7.18;;;3.00;;
28613;SDS011;15806;53.548;9.964;2023-05-10T01:54:34;6.38;;;2.78;;
28613;SDS011;15806;53.548;9.964;2023-05-10T01:56:19;7.90;;;2.17;;
28613;SDS011;15806;53.548;9.964;2023-05-10T01:58:07;4.13;;;2.38;;
28613;SDS011;15806;53.548;9.964;2023-05-10T01:59:50;4.15;;;2.42;;
28613;SDS011;15806;53.548;9.964;2023-05-10T02:01:32;5.38;;;2.33;;
28613;SDS011;15806;53.548;9.964;2023-05-10T02:04:54;6.18;;;2.60;;
28613;SDS011;15806;53.548;9.964;2023-05-10T02:06:37;4.60;;;2.53;;
28613;SDS011;15806;53.548;9.964;2023-05-10T02:08:19;3.67;;;2.30;;
28613;SDS011;15806;53.548;9.964;2023-05-10T02:10:02;4.90;;;2.45;;
28613;SDS011;15806;53.548;9.964;2023-05-10T02:11:45;7.80;;;3.28;;
28613;SDS011;15806;53.548;9.964;2023-05-10T02:13:28;3.67;;;2.55;;
28613;SDS011;15806;53.548;9.964;2023-05-10T02:15:11;5.15;;;2.08;;
28613;SDS011;15806;53.548;9.964;2023-05-10T02:16:55;7.03;;;2.60;;
28613;SDS011;15806;53.548;9.964;2023-05-10T02:18:36;9.63;;;2.78;;
28613;SDS011;15806;53.548;9.964;2023-05-10T02:21:59;4.28;;;2.20;;
28613;SDS011;15806;53.548;9.964;2023-05-10T02:25:23;7.13;;;2.70;;
28613;SDS011;15806;53.548;9.964;2023-05-10T02:27:04;3.75;;;2.20;;
28613;SDS011;15806;53.548;9.964;2023-05-10T02:28:46;5.70;;;2.30;;
28613;SDS011;15806;53.548;9.964;2023-05-10T02:30:28;5.75;;;2.83;;
28613;SDS011;15806;53.548;9.964;2023-05-10T02:32:14;5.88;;;2.97;;
28613;SDS011;15806;53.548;9.964;2023-05-10T02:33:58;5.10;;;2.97;;
28613;SDS011;15806;53.548;9.964;2023-05-10T02:35:43;5.88;;;2.58;;
28613;SDS011;15806;53.548;9.964;2023-05-10T02:37:48;5.78;;;2.70;;
28613;SDS011;15806;53.548;9.964;2023-05-10T02:39:36;5.00;;;2.83;;
28613;SDS011;15806;53.548;9.964;2023-05-10T02:41:37;8.75;;;2.80;;
28613;SDS011;15806;53.548;9.964;2023-05-10T02:43:23;3.88;;;2.40;;
28613;SDS011;15806;53.548;9.964;2023-05-10T02:45:10;6.55;;;2.50;;
28613;SDS011;15806;53.548;9.964;2023-05-10T02:47:03;7.22;;;2.70;;
28613;SDS011;15806;53.548;9.964;2023-05-10T02:48:43;6.00;;;2.47;;
28613;SDS011;15806;53.548;9.964;2023-05-10T02:50:25;4.17;;;2.27;;
28613;SDS011;15806;53.548;9.964;2023-05-10T02:52:09;6.53;;;2.47;;
28613;SDS011;15806;53.548;9.964;2023-05-10T02:53:50;3.75;;;2.33;;
28613;SDS011;15806;53.548;9.964;2023-05-10T02:55:35;7.72;;;2.33;;
28613;SDS011;15806;53.548;9.964;2023-05-10T02:57:20;4.28;;;2.30;;
28613;SDS011;15806;53.548;9.964;2023-05-10T02:59:08;6.00;;;2.38;;
28613;SDS011;15806;53.548;9.964;2023-05-10T03:00:49;5.17;;;3.00;;
28613;SDS011;15806;53.548;9.964;2023-05-10T03:02:29;4.47;;;2.63;;
28613;SDS011;15806;53.548;9.964;2023-05-10T03:04:10;4.03;;;2.30;;
28613;SDS011;15806;53.548;9.964;2023-05-10T03:05:50;7.30;;;2.70;;
28613;SDS011;15806;53.548;9.964;2023-05-10T03:07:31;7.83;;;2.77;;
28613;SDS011;15806;53.548;9.964;2023-05-10T03:15:03;5.03;;;2.47;;
28613;SDS011;15806;53.548;9.964;2023-05-10T03:17:11;5.97;;;2.47;;
28613;SDS011;15806;53.548;9.964;2023-05-10T03:19:12;5.15;;;2.55;;
28613;SDS011;15806;53.548;9.964;2023-05-10T03:21:04;6.28;;;2.97;;
28613;SDS011;15806;53.548;9.964;2023-05-10T03:22:49;6.07;;;2.75;;
28613;SDS011;15806;53.548;9.964;2023-05-10T03:24:33;7.65;;;2.33;;
28613;SDS011;15806;53.548;9.964;2023-05-10T03:26:20;6.72;;;2.90;;
28613;SDS011;15806;53.548;9.964;2023-05-10T03:28:06;3.60;;;2.10;;
28613;SDS011;15806;53.548;9.964;2023-05-10T03:31:28;4.95;;;2.83;;
28613;SDS011;15806;53.548;9.964;2023-05-10T03:33:09;5.40;;;2.70;;
28613;SDS011;15806;53.548;9.964;2023-05-10T03:34:49;5.00;;;2.57;;
28613;SDS011;15806;53.548;9.964;2023-05-10T03:36:30;10.30;;;2.80;;
28613;SDS011;15806;53.548;9.964;2023-05-10T03:38:11;6.07;;;3.03;;
28613;SDS011;15806;53.548;9.964;2023-05-10T03:39:52;6.03;;;3.25;;
28613;SDS011;15806;53.548;9.964;2023-05-10T03:41:32;5.73;;;3.03;;
28613;SDS011;15806;53.548;9.964;2023-05-10T03:43:13;5.30;;;2.43;;
28613;SDS011;15806;53.548;9.964;2023-05-10T03:44:53;5.40;;;2.90;;
28613;SDS011;15806;53.548;9.964;2023-05-10T03:46:34;4.77;;;2.40;;
28613;SDS011;15806;53.548;9.964;2023-05-10T03:48:14;6.63;;;2.80;;
28613;SDS011;15806;53.548;9.964;2023-05-10T03:49:55;5.60;;;2.40;;
28613;SDS011;15806;53.548;9.964;2023-05-10T03:51:35;6.37;;;2.87;;
28613;SDS011;15806;53.548;9.964;2023-05-10T03:53:16;6.73;;;2.90;;
28613;SDS011;15806;53.548;9.964;2023-05-10T03:54:56;9.93;;;2.97;;
28613;SDS011;15806;53.548;9.964;2023-05-10T03:56:37;4.37;;;2.40;;
28613;SDS011;15806;53.548;9.964;2023-05-10T03:58:17;4.90;;;2.83;;
28613;SDS011;15806;53.548;9.964;2023-05-10T03:59:58;7.43;;;3.00;;
28613;SDS011;15806;53.548;9.964;2023-05-10T04:01:38;4.67;;;2.70;;
28613;SDS011;15806;53.548;9.964;2023-05-10T04:03:19;7.37;;;2.87;;
28613;SDS011;15806;53.548;9.964;2023-05-10T04:05:00;8.07;;;3.00;;
28613;SDS011;15806;53.548;9.964;2023-05-10T04:06:40;5.47;;;2.90;;
28613;SDS011;15806;53.548;9.964;2023-05-10T04:08:21;6.40;;;2.97;;
28613;SDS011;15806;53.548;9.964;2023-05-10T04:10:01;4.13;;;2.43;;
28613;SDS011;15806;53.548;9.964;2023-05-10T04:11:42;4.10;;;2.50;;
28613;SDS011;15806;53.548;9.964;2023-05-10T04:13:22;7.27;;;2.63;;
28613;SDS011;15806;53.548;9.964;2023-05-10T04:15:03;5.53;;;2.60;;
28613;SDS011;15806;53.548;9.964;2023-05-10T04:16:44;6.87;;;2.53;;
28613;SDS011;15806;53.548;9.964;2023-05-10T04:18:24;5.43;;;2.63;;
28613;SDS011;15806;53.548;9.964;2023-05-10T04:20:05;9.97;;;2.70;;
28613;SDS011;15806;53.548;9.964;2023-05-10T04:21:46;6.40;;;2.72;;
28613;SDS011;15806;53.548;9.964;2023-05-10T04:23:27;6.07;;;2.83;;
28613;SDS011;15806;53.548;9.964;2023-05-10T04:25:07;4.80;;;2.40;;
28613;SDS011;15806;53.548;9.964;2023-05-10T04:26:48;7.43;;;3.03;;
28613;SDS011;15806;53.548;9.964;2023-05-10T04:28:29;13.27;;;3.37;;
28613;SDS011;15806;53.548;9.964;2023-05-10T04:30:09;7.97;;;2.60;;
28613;SDS011;15806;53.548;9.964;2023-05-10T04:31:50;4.70;;;3.00;;
28613;SDS011;15806;53.548;9.964;2023-05-10T04:33:31;9.53;;;3.97;;
28613;SDS011;15806;53.548;9.964;2023-05-10T04:35:12;3.88;;;2.78;;
28613;SDS011;15806;53.548;9.964;2023-05-10T04:36:52;10.53;;;3.13;;
28613;SDS011;15806;53.548;9.964;2023-05-10T04:38:33;6.73;;;3.27;;
28613;SDS011;15806;53.548;9.964;2023-05-10T04:40:13;3.93;;;2.50;;
28613;SDS011;15806;53.548;9.964;2023-05-10T04:41:54;4.13;;;2.80;;
28613;SDS011;15806;53.548;9.964;2023-05-10T04:43:35;8.70;;;2.63;;
28613;SDS011;15806;53.548;9.964;2023-05-10T04:45:15;5.23;;;2.70;;
28613;SDS011;15806;53.548;9.964;2023-05-10T04:46:56;9.37;;;3.20;;
28613;SDS011;15806;53.548;9.964;2023-05-10T04:48:36;8.13;;;3.10;;
28613;SDS011;15806;53.548;9.964;2023-05-10T04:50:17;6.50;;;2.40;;
28613;SDS011;15806;53.548;9.964;2023-05-10T04:51:57;5.53;;;3.10;;
28613;SDS011;15806;53.548;9.964;2023-05-10T04:53:38;4.80;;;2.87;;
28613;SDS011;15806;53.548;9.964;2023-05-10T04:55:18;10.27;;;2.80;;
28613;SDS011;15806;53.548;9.964;2023-05-10T04:56:59;7.57;;;3.00;;
28613;SDS011;15806;53.548;9.964;2023-05-10T04:58:39;6.03;;;2.73;;
28613;SDS011;15806;53.548;9.964;2023-05-10T05:00:20;6.33;;;2.80;;
28613;SDS011;15806;53.548;9.964;2023-05-10T05:02:00;7.90;;;4.27;;
28613;SDS011;15806;53.548;9.964;2023-05-10T05:03:41;10.40;;;2.90;;
28613;SDS011;15806;53.548;9.964;2023-05-10T05:05:22;4.77;;;2.57;;
28613;SDS011;15806;53.548;9.964;2023-05-10T05:07:02;5.47;;;2.80;;
28613;SDS011;15806;53.548;9.964;2023-05-10T05:08:43;4.87;;;2.80;;
28613;SDS011;15806;53.548;9.964;2023-05-10T05:10:23;5.83;;;2.77;;
28613;SDS011;15806;53.548;9.964;2023-05-10T05:12:04;5.50;;;3.30;;
28613;SDS011;15806;53.548;9.964;2023-05-10T05:13:44;4.37;;;2.80;;
28613;SDS011;15806;53.548;9.964;2023-05-10T05:15:25;4.60;;;2.67;;
28613;SDS011;15806;53.548;9.964;2023-05-10T05:17:05;9.00;;;3.07;;
28613;SDS011;15806;53.548;9.964;2023-05-10T05:18:46;6.70;;;3.03;;
28613;SDS011;15806;53.548;9.964;2023-05-10T05:20:26;7.60;;;4.30;;
28613;SDS011;15806;53.548;9.964;2023-05-10T05:22:07;5.93;;;3.35;;
28613;SDS011;15806;53.548;9.964;2023-05-10T05:23:48;6.00;;;2.67;;
28613;SDS011;15806;53.548;9.964;2023-05-10T05:25:28;7.43;;;2.87;;
28613;SDS011;15806;53.548;9.964;2023-05-10T05:27:09;6.67;;;3.00;;
28613;SDS011;15806;53.548;9.964;2023-05-10T05:28:49;11.30;;;3.20;;
28613;SDS011;15806;53.548;9.964;2023-05-10T05:30:30;7.17;;;3.00;;
28613;SDS011;15806;53.548;9.964;2023-05-10T05:32:10;8.80;;;3.30;;
28613;SDS011;15806;53.548;9.964;2023-05-10T05:33:51;5.50;;;2.80;;
28613;SDS011;15806;53.548;9.964;2023-05-10T05:35:33;5.63;;;2.90;;
28613;SDS011;15806;53.548;9.964;2023-05-10T05:37:14;8.57;;;2.95;;
28613;SDS011;15806;53.548;9.964;2023-05-10T05:38:58;5.82;;;2.72;;
28613;SDS011;15806;53.548;9.964;2023-05-10T05:40:39;10.50;;;3.60;;
28613;SDS011;15806;53.548;9.964;2023-05-10T05:42:19;9.93;;;3.90;;
28613;SDS011;15806;53.548;9.964;2023-05-10T05:44:00;4.17;;;2.43;;
28613;SDS011;15806;53.548;9.964;2023-05-10T05:45:40;5.43;;;2.70;;
28613;SDS011;15806;53.548;9.964;2023-05-10T05:47:21;6.10;;;2.67;;
28613;SDS011;15806;53.548;9.964;2023-05-10T05:49:01;6.87;;;3.13;;
28613;SDS011;15806;53.548;9.964;2023-05-10T05:50:42;5.40;;;2.70;;
28613;SDS011;15806;53.548;9.964;2023-05-10T05:52:23;7.63;;;2.63;;
28613;SDS011;15806;53.548;9.964;2023-05-10T05:54:03;5.77;;;3.07;;
28613;SDS011;15806;53.548;9.964;2023-05-10T05:57:34;6.38;;;2.60;;
28613;SDS011;15806;53.548;9.964;2023-05-10T05:59:15;8.30;;;3.10;;
28613;SDS011;15806;53.548;9.964;2023-05-10T06:00:55;5.83;;;2.50;;
28613;SDS011;15806;53.548;9.964;2023-05-10T06:02:36;6.53;;;3.00;;
28613;SDS011;15806;53.548;9.964;2023-05-10T06:04:17;5.23;;;2.40;;
28613;SDS011;15806;53.548;9.964;2023-05-10T06:05:57;4.40;;;3.00;;
28613;SDS011;15806;53.548;9.964;2023-05-10T06:07:38;5.10;;;2.97;;
28613;SDS011;15806;53.548;9.964;2023-05-10T06:09:18;5.03;;;2.80;;
28613;SDS011;15806;53.548;9.964;2023-05-10T06:10:59;6.53;;;3.23;;
28613;SDS011;15806;53.548;9.964;2023-05-10T06:12:40;5.30;;;2.95;;
28613;SDS011;15806;53.548;9.964;2023-05-10T06:14:20;5.13;;;3.33;;
28613;SDS011;15806;53.548;9.964;2023-05-10T06:16:02;7.40;;;2.80;;
28613;SDS011;15806;53.548;9.964;2023-05-10T06:17:43;3.50;;;2.35;;
28613;SDS011;15806;53.548;9.964;2023-05-10T06:19:23;5.43;;;2.90;;
28613;SDS011;15806;53.548;9.964;2023-05-10T06:21:04;8.33;;;2.77;;
28613;SDS011;15806;53.548;9.964;2023-05-10T06:22:44;4.33;;;2.57;;
28613;SDS011;15806;53.548;9.964;2023-05-10T06:24:25;6.53;;;3.07;;
28613;SDS011;15806;53.548;9.964;2023-05-10T06:26:05;9.10;;;3.07;;
28613;SDS011;15806;53.548;9.964;2023-05-10T06:27:46;14.17;;;5.17;;
28613;SDS011;15806;53.548;9.964;2023-05-10T06:29:26;8.73;;;3.00;;
28613;SDS011;15806;53.548;9.964;2023-05-10T06:31:07;7.60;;;2.70;;
28613;SDS011;15806;53.548;9.964;2023-05-10T06:32:47;8.03;;;2.63;;
28613;SDS011;15806;53.548;9.964;2023-05-10T06:34:28;5.33;;;2.87;;
28613;SDS011;15806;53.548;9.964;2023-05-10T06:36:08;5.20;;;3.20;;
28613;SDS011;15806;53.548;9.964;2023-05-10T06:37:49;8.13;;;2.70;;
28613;SDS011;15806;53.548;9.964;2023-05-10T06:39:30;4.80;;;2.65;;
28613;SDS011;15806;53.548;9.964;2023-05-10T06:41:10;6.33;;;2.90;;
28613;SDS011;15806;53.548;9.964;2023-05-10T06:42:51;8.93;;;3.37;;
28613;SDS011;15806;53.548;9.964;2023-05-10T06:44:31;4.33;;;2.90;;
28613;SDS011;15806;53.548;9.964;2023-05-10T06:46:12;4.13;;;2.40;;
28613;SDS011;15806;53.548;9.964;2023-05-10T06:47:53;5.25;;;3.15;;
28613;SDS011;15806;53.548;9.964;2023-05-10T06:49:33;8.00;;;3.47;;
28613;SDS011;15806;53.548;9.964;2023-05-10T06:51:14;6.13;;;2.80;;
28613;SDS011;15806;53.548;9.964;2023-05-10T06:52:54;5.27;;;2.83;;
28613;SDS011;15806;53.548;9.964;2023-05-10T06:54:35;6.73;;;2.87;;
28613;SDS011;15806;53.548;9.964;2023-05-10T06:56:15;4.93;;;2.90;;
28613;SDS011;15806;53.548;9.964;2023-05-10T06:57:56;6.57;;;2.87;;
28613;SDS011;15806;53.548;9.964;2023-05-10T06:59:36;6.93;;;3.00;;
28613;SDS011;15806;53.548;9.964;2023-05-10T07:01:17;4.50;;;3.00;;
28613;SDS011;15806;53.548;9.964;2023-05-10T07:02:57;6.90;;;2.67;;
28613;SDS011;15806;53.548;9.964;2023-05-10T07:04:38;4.90;;;2.97;;
28613;SDS011;15806;53.548;9.964;2023-05-10T07:06:18;4.60;;;2.97;;
28613;SDS011;15806;53.548;9.964;2023-05-10T07:07:59;5.87;;;2.80;;
28613;SDS011;15806;53.548;9.964;2023-05-10T07:09:39;5.23;;;2.50;;
28613;SDS011;15806;53.548;9.964;2023-05-10T07:11:20;4.15;;;2.67;;
28613;SDS011;15806;53.548;9.964;2023-05-10T07:13:01;4.97;;;3.03;;
28613;SDS011;15806;53.548;9.964;2023-05-10T07:14:41;8.20;;;3.00;;
28613;SDS011;15806;53.548;9.964;2023-05-10T07:16:22;4.63;;;3.22;;
28613;SDS011;15806;53.548;9.964;2023-05-10T07:18:03;7.57;;;3.03;;
28613;SDS011;15806;53.548;9.964;2023-05-10T07:19:43;4.93;;;2.90;;
28613;SDS011;15806;53.548;9.964;2023-05-10T07:21:24;4.10;;;2.73;;
28613;SDS011;15806;53.548;9.964;2023-05-10T07:23:05;4.77;;;2.90;;
28613;SDS011;15806;53.548;9.964;2023-05-10T07:24:45;4.70;;;3.00;;
28613;SDS011;15806;53.548;9.964;2023-05-10T07:26:26;5.37;;;2.87;;
28613;SDS011;15806;53.548;9.964;2023-05-10T07:28:06;4.57;;;2.77;;
28613;SDS011;15806;53.548;9.964;2023-05-10T07:29:47;7.57;;;2.60;;
28613;SDS011;15806;53.548;9.964;2023-05-10T07:31:27;3.97;;;2.93;;
28613;SDS011;15806;53.548;9.964;2023-05-10T07:33:08;8.30;;;2.90;;
28613;SDS011;15806;53.548;9.964;2023-05-10T07:36:30;6.43;;;3.00;;
28613;SDS011;15806;53.548;9.964;2023-05-10T07:38:10;6.03;;;2.77;;
28613;SDS011;15806;53.548;9.964;2023-05-10T07:39:51;6.60;;;2.83;;
28613;SDS011;15806;53.548;9.964;2023-05-10T07:41:31;4.57;;;2.40;;
28613;SDS011;15806;53.548;9.964;2023-05-10T07:43:12;3.93;;;2.60;;
28613;SDS011;15806;53.548;9.964;2023-05-10T07:44:52;6.73;;;2.67;;
28613;SDS011;15806;53.548;9.964;2023-05-10T07:46:33;7.13;;;2.53;;
28613;SDS011;15806;53.548;9.964;2023-05-10T07:48:13;6.70;;;2.97;;
28613;SDS011;15806;53.548;9.964;2023-05-10T07:49:54;5.13;;;2.47;;
28613;SDS011;15806;53.548;9.964;2023-05-10T07:51:34;5.60;;;2.50;;
28613;SDS011;15806;53.548;9.964;2023-05-10T07:53:15;4.93;;;2.40;;
28613;SDS011;15806;53.548;9.964;2023-05-10T07:54:55;7.60;;;3.33;;
28613;SDS011;15806;53.548;9.964;2023-05-10T07:56:36;3.33;;;2.30;;
28613;SDS011;15806;53.548;9.964;2023-05-10T07:58:16;8.90;;;2.77;;
28613;SDS011;15806;53.548;9.964;2023-05-10T07:59:57;6.97;;;2.77;;
28613;SDS011;15806;53.548;9.964;2023-05-10T08:01:38;5.17;;;2.70;;
28613;SDS011;15806;53.548;9.964;2023-05-10T08:03:18;4.63;;;2.47;;
28613;SDS011;15806;53.548;9.964;2023-05-10T08:04:59;5.70;;;2.57;;
28613;SDS011;15806;53.548;9.964;2023-05-10T08:06:39;5.57;;;2.87;;
28613;SDS011;15806;53.548;9.964;2023-05-10T08:08:20;7.10;;;2.80;;
28613;SDS011;15806;53.548;9.964;2023-05-10T08:10:01;5.50;;;2.83;;
28613;SDS011;15806;53.548;9.964;2023-05-10T08:11:42;5.50;;;2.60;;
28613;SDS011;15806;53.548;9.964;2023-05-10T08:13:22;6.33;;;3.53;;
28613;SDS011;15806;53.548;9.964;2023-05-10T08:15:03;6.10;;;2.97;;
28613;SDS011;15806;53.548;9.964;2023-05-10T08:16:44;4.25;;;2.50;;
28613;SDS011;15806;53.548;9.964;2023-05-10T08:18:25;6.33;;;3.80;;
28613;SDS011;15806;53.548;9.964;2023-05-10T08:20:05;6.27;;;2.80;;
28613;SDS011;15806;53.548;9.964;2023-05-10T08:21:46;10.70;;;3.00;;
28613;SDS011;15806;53.548;9.964;2023-05-10T08:23:27;3.58;;;2.47;;
28613;SDS011;15806;53.548;9.964;2023-05-10T08:25:07;4.17;;;2.57;;
28613;SDS011;15806;53.548;9.964;2023-05-10T08:26:48;4.93;;;2.83;;
28613;SDS011;15806;53.548;9.964;2023-05-10T08:28:29;6.07;;;3.17;;
28613;SDS011;15806;53.548;9.964;2023-05-10T08:30:09;4.57;;;2.60;;
28613;SDS011;15806;53.548;9.964;2023-05-10T08:31:50;10.87;;;2.90;;
28613;SDS011;15806;53.548;9.964;2023-05-10T08:33:30;4.67;;;2.60;;
28613;SDS011;15806;53.548;9.964;2023-05-10T08:35:11;4.70;;;2.77;;
28613;SDS011;15806;53.548;9.964;2023-05-10T08:36:51;4.83;;;3.10;;
28613;SDS011;15806;53.548;9.964;2023-05-10T08:38:32;5.27;;;2.97;;
28613;SDS011;15806;53.548;9.964;2023-05-10T08:40:13;7.77;;;2.93;;
28613;SDS011;15806;53.548;9.964;2023-05-10T08:41:55;4.88;;;3.03;;
28613;SDS011;15806;53.548;9.964;2023-05-10T08:43:41;4.93;;;2.72;;
28613;SDS011;15806;53.548;9.964;2023-05-10T08:45:23;4.70;;;3.05;;
28613;SDS011;15806;53.548;9.964;2023-05-10T08:47:07;8.40;;;3.45;;
28613;SDS011;15806;53.548;9.964;2023-05-10T08:48:50;6.90;;;3.25;;
28613;SDS011;15806;53.548;9.964;2023-05-10T08:50:31;6.15;;;3.03;;
28613;SDS011;15806;53.548;9.964;2023-05-10T08:52:13;6.38;;;2.83;;
28613;SDS011;15806;53.548;9.964;2023-05-10T08:53:56;6.30;;;2.88;;
28613;SDS011;15806;53.548;9.964;2023-05-10T08:55:37;8.03;;;3.53;;
28613;SDS011;15806;53.548;9.964;2023-05-10T08:57:19;5.30;;;2.97;;
28613;SDS011;15806;53.548;9.964;2023-05-10T08:58:59;6.78;;;2.92;;
28613;SDS011;15806;53.548;9.964;2023-05-10T09:00:40;6.40;;;3.50;;
28613;SDS011;15806;53.548;9.964;2023-05-10T09:02:21;5.93;;;3.25;;
28613;SDS011;15806;53.548;9.964;2023-05-10T09:04:03;8.43;;;3.67;;
28613;SDS011;15806;53.548;9.964;2023-05-10T09:05:53;6.68;;;3.13;;
28613;SDS011;15806;53.548;9.964;2023-05-10T09:07:34;5.60;;;3.10;;
28613;SDS011;15806;53.548;9.964;2023-05-10T09:09:15;6.90;;;3.27;;
28613;SDS011;15806;53.548;9.964;2023-05-10T09:10:57;3.35;;;2.60;;
28613;SDS011;15806;53.548;9.964;2023-05-10T09:12:37;4.80;;;3.03;;
28613;SDS011;15806;53.548;9.964;2023-05-10T09:14:18;7.00;;;3.15;;
28613;SDS011;15806;53.548;9.964;2023-05-10T09:17:40;7.30;;;3.35;;
28613;SDS011;15806;53.548;9.964;2023-05-10T09:19:22;5.88;;;2.95;;
28613;SDS011;15806;53.548;9.964;2023-05-10T09:21:02;10.23;;;3.87;;
28613;SDS011;15806;53.548;9.964;2023-05-10T09:22:43;5.47;;;3.50;;
28613;SDS011;15806;53.548;9.964;2023-05-10T09:24:29;8.90;;;3.55;;
28613;SDS011;15806;53.548;9.964;2023-05-10T09:26:10;7.30;;;3.35;;
28613;SDS011;15806;53.548;9.964;2023-05-10T09:27:51;5.20;;;2.90;;
28613;SDS011;15806;53.548;9.964;2023-05-10T09:29:38;8.63;;;3.30;;
28613;SDS011;15806;53.548;9.964;2023-05-10T09:31:19;4.35;;;2.88;;
28613;SDS011;15806;53.548;9.964;2023-05-10T09:33:00;6.33;;;4.00;;
28613;SDS011;15806;53.548;9.964;2023-05-10T09:34:41;8.02;;;4.10;;
28613;SDS011;15806;53.548;9.964;2023-05-10T09:36:22;4.73;;;3.47;;
28613;SDS011;15806;53.548;9.964;2023-05-10T09:38:03;7.63;;;3.47;;
28613;SDS011;15806;53.548;9.964;2023-05-10T09:39:44;5.55;;;3.53;;
28613;SDS011;15806;53.548;9.964;2023-05-10T09:41:25;6.27;;;3.37;;
28613;SDS011;15806;53.548;9.964;2023-05-10T09:43:06;8.87;;;3.80;;
28613;SDS011;15806;53.548;9.964;2023-05-10T09:46:27;6.82;;;3.20;;
28613;SDS011;15806;53.548;9.964;2023-05-10T09:48:08;5.53;;;2.93;;
28613;SDS011;15806;53.548;9.964;2023-05-10T09:49:49;5.73;;;3.60;;
28613;SDS011;15806;53.548;9.964;2023-05-10T09:51:30;9.18;;;4.70;;
28613;SDS011;15806;53.548;9.964;2023-05-10T09:53:10;5.47;;;3.97;;
28613;SDS011;15806;53.548;9.964;2023-05-10T09:54:54;7.53;;;3.80;;
28613;SDS011;15806;53.548;9.964;2023-05-10T09:56:35;6.53;;;3.77;;
28613;SDS011;15806;53.548;9.964;2023-05-10T09:58:16;6.95;;;3.95;;
28613;SDS011;15806;53.548;9.964;2023-05-10T09:59:59;7.57;;;3.97;;
28613;SDS011;15806;53.548;9.964;2023-05-10T10:01:40;7.50;;;4.45;;
28613;SDS011;15806;53.548;9.964;2023-05-10T10:03:21;9.13;;;4.33;;
28613;SDS011;15806;53.548;9.964;2023-05-10T10:05:02;7.80;;;4.87;;
28613;SDS011;15806;53.548;9.964;2023-05-10T10:06:58;10.70;;;4.40;;
28613;SDS011;15806;53.548;9.964;2023-05-10T10:08:42;8.48;;;4.28;;
28613;SDS011;15806;53.548;9.964;2023-05-10T10:10:24;9.90;;;4.80;;
28613;SDS011;15806;53.548;9.964;2023-05-10T10:12:05;10.32;;;5.22;;
28613;SDS011;15806;53.548;9.964;2023-05-10T10:13:46;7.90;;;4.63;;
28613;SDS011;15806;53.548;9.964;2023-05-10T10:15:27;8.95;;;4.53;;
28613;SDS011;15806;53.548;9.964;2023-05-10T10:17:07;11.43;;;6.20;;
28613;SDS011;15806;53.548;9.964;2023-05-10T10:18:49;11.60;;;5.90;;
28613;SDS011;15806;53.548;9.964;2023-05-10T10:20:29;10.23;;;4.13;;
28613;SDS011;15806;53.548;9.964;2023-05-10T10:22:10;9.90;;;5.07;;
28613;SDS011;15806;53.548;9.964;2023-05-10T10:23:51;8.47;;;5.07;;
28613;SDS011;15806;53.548;9.964;2023-05-10T10:25:31;8.37;;;5.00;;
28613;SDS011;15806;53.548;9.964;2023-05-10T10:31:00;8.93;;;4.70;;
28613;SDS011;15806;53.548;9.964;2023-05-10T10:34:43;11.50;;;5.35;;
28613;SDS011;15806;53.548;9.964;2023-05-10T10:36:24;12.15;;;5.72;;
28613;SDS011;15806;53.548;9.964;2023-05-10T10:38:04;9.80;;;5.00;;
28613;SDS011;15806;53.548;9.964;2023-05-10T10:39:48;12.25;;;5.88;;
28613;SDS011;15806;53.548;9.964;2023-05-10T10:41:39;12.30;;;5.55;;
28613;SDS011;15806;53.548;9.964;2023-05-10T10:43:32;15.45;;;7.00;;
28613;SDS011;15806;53.548;9.964;2023-05-10T10:45:13;12.07;;;5.60;;
28613;SDS011;15806;53.548;9.964;2023-05-10T10:48:50;13.23;;;6.18;;
28613;SDS011;15806;53.548;9.964;2023-05-10T10:50:55;13.68;;;5.78;;
28613;SDS011;15806;53.548;9.964;2023-05-10T10:52:37;10.80;;;6.28;;